Grizzly Air Cargo 5369


PADU
Unalaska Airport
Unalaska, Alaska, US
PANC
Ted Stevens Anchorage International Airport
Anchorage, Alaska, US

Activity Log

Date Flight Route Aircraft Duration
09/06/2020 GRZ5369 TUCKS B722 1h 39m
12/16/2019 GRZ5369 N0446F410 DUT J115 AKN Q47 AMOTT AMOTT4 B738 1h 56m
11/27/2019 GRZ5369 DUT J115 TUCKS AMOTT4 B722 1h 37m

Route Details

Aircraft Information
Primary: Boeing 727-200F
Backup: Boeing 737-800BCF
Route Data
Distance: 712nm
Sched. Duration: 2h 00m
Avg. Duration: 1h 44m (-57m)
Times Flown: 3
Recm'd Route: DUT J115 TUCKS AMOTT4
Planned Altitude: 33,000ft
Origin Wx: PADU 202322Z 09012G19KT 10SM OVC031 07/01 A3051 RMK AO2
Dest. Wx: PANC 202253Z VRB03KT 10SM FEW015 SCT200 03/M02 A3041 RMK AO2 SLP301 T00281022
Notes:

Financial History
Total Freight: 90,528lbs
Average Load: 30,176lbs/flt
Fuel Used: 32,691lbs
Avg. Fuel Used: 10,897lbs/flt
Fuel Expense: $24,191
Avg. Fuel Expense: $8,064
Avg. Fuel Cost: $0.74/lbs
Total Gross Income: $251,668
Pilot Pay: $727
Total Expenses: $27,336
Total Revenue: $198,949
Average Revenue: $83,889.28